createdAt,value
2022-09-16T00:00:47.985Z,97272.24
2022-09-16T00:03:41.622Z,97270.39
2022-09-16T00:06:21.868Z,97267.93
2022-09-16T00:08:55.943Z,97270.40
2022-09-16T00:11:28.519Z,97274.15
2022-09-16T00:14:00.680Z,97275.02
2022-09-16T00:16:33.252Z,97277.04
2022-09-16T00:19:05.627Z,97282.60
2022-09-16T00:21:37.865Z,97285.13
2022-09-16T00:24:13.548Z,97286.86
2022-09-16T00:26:46.943Z,97291.05
2022-09-16T00:29:18.996Z,97293.48
2022-09-16T00:31:52.695Z,97297.64
2022-09-16T00:34:25.031Z,97293.73
2022-09-16T00:36:57.505Z,97293.70
2022-09-16T00:39:29.795Z,97294.09
2022-09-16T00:42:02.047Z,97294.90
2022-09-16T00:44:54.924Z,97295.16
2022-09-16T00:47:32.537Z,97294.39
2022-09-16T00:50:11.384Z,97300.55
2022-09-16T00:52:44.721Z,97300.66
2022-09-16T00:55:22.575Z,97301.73
2022-09-16T00:58:00.775Z,97299.62
2022-09-16T01:00:33.249Z,97296.14
2022-09-16T01:03:05.906Z,97295.20
2022-09-16T01:05:39.954Z,97297.23
2022-09-16T01:08:12.406Z,97293.58
2022-09-16T01:10:45.723Z,97294.91
2022-09-16T01:13:18.636Z,97292.20
2022-09-16T01:16:02.829Z,97288.79
2022-09-16T01:18:41.770Z,97284.08
2022-09-16T01:21:36.485Z,97283.09
2022-09-16T01:24:31.353Z,97280.73
2022-09-16T01:27:28.100Z,97278.71
2022-09-16T01:30:19.344Z,97285.09
2022-09-16T01:33:08.790Z,97290.92
2022-09-16T01:35:53.132Z,97291.14
2022-09-16T01:38:36.569Z,97288.60
2022-09-16T01:41:16.304Z,97287.05
2022-09-16T01:43:57.086Z,97293.48
2022-09-16T01:46:39.442Z,97297.85
2022-09-16T01:49:21.681Z,97293.63
2022-09-16T01:52:00.437Z,97298.63
2022-09-16T01:54:40.164Z,97299.11
2022-09-16T01:57:17.385Z,97300.96
2022-09-16T01:59:55.454Z,97301.29
2022-09-16T02:02:33.669Z,97298.84
2022-09-16T02:05:11.362Z,97295.98
2022-09-16T02:07:49.673Z,97301.36
2022-09-16T02:10:27.695Z,97303.33
2022-09-16T02:13:04.660Z,97304.10
2022-09-16T02:15:39.876Z,97305.87
2022-09-16T02:18:14.722Z,97306.88
2022-09-16T02:20:49.656Z,97305.98
2022-09-16T02:23:25.305Z,97305.08
2022-09-16T02:25:59.378Z,97303.09
2022-09-16T02:28:35.376Z,97304.13
2022-09-16T02:31:09.984Z,97301.85
2022-09-16T02:33:46.306Z,97304.45
2022-09-16T02:36:23.013Z,97309.30
2022-09-16T02:38:59.415Z,97312.92
2022-09-16T02:41:31.930Z,97315.39
2022-09-16T02:44:05.004Z,97312.61
2022-09-16T02:46:44.370Z,97319.45
2022-09-16T02:49:28.249Z,97318.14
2022-09-16T02:52:07.265Z,97324.15
2022-09-16T02:54:47.413Z,97322.64
2022-09-16T02:57:20.438Z,97317.21
2022-09-16T02:59:53.227Z,97317.33
2022-09-16T03:02:25.720Z,97314.27
2022-09-16T03:04:57.940Z,97313.45
2022-09-16T03:07:30.624Z,97318.40
2022-09-16T03:10:04.029Z,97317.34
2022-09-16T03:12:49.723Z,97320.13
2022-09-16T03:15:39.709Z,97321.42
2022-09-16T03:18:34.179Z,97320.86
2022-09-16T03:21:17.734Z,97319.61
2022-09-16T03:23:57.969Z,97319.61
2022-09-16T03:26:36.690Z,97315.73
2022-09-16T03:29:19.969Z,97315.11
2022-09-16T03:31:58.364Z,97311.86
2022-09-16T03:34:35.109Z,97308.73
2022-09-16T03:37:11.989Z,97314.53
2022-09-16T03:39:49.725Z,97318.04
2022-09-16T03:42:23.386Z,97321.55
2022-09-16T03:44:55.781Z,97326.41
2022-09-16T03:47:28.230Z,97323.74
2022-09-16T03:50:00.503Z,97326.23
2022-09-16T03:52:32.629Z,97326.54
2022-09-16T03:55:05.398Z,97329.59
2022-09-16T03:57:37.661Z,97327.60
2022-09-16T04:00:16.100Z,97327.53
2022-09-16T04:02:48.581Z,97326.33
2022-09-16T04:05:21.126Z,97328.20
2022-09-16T04:07:53.512Z,97328.54
2022-09-16T04:10:25.778Z,97330.04
2022-09-16T04:13:00.970Z,97330.08
2022-09-16T04:15:35.162Z,97329.90
2022-09-16T04:18:07.774Z,97329.23
2022-09-16T04:20:40.107Z,97330.83
2022-09-16T04:23:12.761Z,97329.20
2022-09-16T04:25:44.987Z,97329.83
2022-09-16T04:28:17.251Z,97328.30
2022-09-16T04:30:49.702Z,97328.36
2022-09-16T04:33:24.309Z,97323.48
2022-09-16T04:36:02.514Z,97322.85
2022-09-16T04:38:35.361Z,97322.15
2022-09-16T04:41:10.170Z,97319.08
2022-09-16T04:43:42.951Z,97320.92
2022-09-16T04:46:15.423Z,97323.71
2022-09-16T04:48:50.262Z,97326.70
2022-09-16T04:51:23.653Z,97329.54
2022-09-16T04:53:56.944Z,97327.25
2022-09-16T04:56:31.902Z,97325.19
2022-09-16T04:59:06.303Z,97325.39
2022-09-16T05:01:40.837Z,97325.95
2022-09-16T05:04:13.501Z,97322.05
2022-09-16T05:06:45.694Z,97316.82
2022-09-16T05:09:18.088Z,97317.90
2022-09-16T05:11:50.525Z,97316.91
2022-09-16T05:14:23.225Z,97315.67
2022-09-16T05:16:55.497Z,97317.57
2022-09-16T05:19:27.784Z,97318.36
2022-09-16T05:22:00.983Z,97317.10
2022-09-16T05:24:34.938Z,97322.14
2022-09-16T05:27:07.061Z,97327.34
2022-09-16T05:29:39.296Z,97331.09
2022-09-16T05:32:12.311Z,97337.77
2022-09-16T05:34:44.598Z,97337.00
2022-09-16T05:37:16.762Z,97339.63
2022-09-16T05:39:52.109Z,97336.55
2022-09-16T05:42:24.188Z,97332.67
2022-09-16T05:44:56.328Z,97338.65
2022-09-16T05:47:29.359Z,97339.17
2022-09-16T05:50:01.855Z,97340.89
2022-09-16T05:52:33.974Z,97341.39
2022-09-16T05:55:07.304Z,97336.03
2022-09-16T05:57:39.792Z,97335.86
2022-09-16T06:00:14.745Z,97336.69
2022-09-16T06:02:49.305Z,97337.15
2022-09-16T06:05:22.148Z,97334.58
2022-09-16T06:07:57.281Z,97335.36
2022-09-16T06:10:32.647Z,97337.98
2022-09-16T06:13:04.865Z,97340.23
2022-09-16T06:15:37.027Z,97339.55
2022-09-16T06:18:09.320Z,97342.42
2022-09-16T06:20:41.382Z,97336.31
2022-09-16T06:23:14.387Z,97334.84
2022-09-16T06:25:47.643Z,97332.16
2022-09-16T06:28:19.811Z,97328.10
2022-09-16T06:31:02.757Z,97327.23
2022-09-16T06:33:38.020Z,97330.98
2022-09-16T06:36:12.571Z,97327.94
2022-09-16T06:38:45.040Z,97325.42
2022-09-16T06:41:19.112Z,97327.52
2022-09-16T06:43:52.260Z,97324.76
2022-09-16T06:46:26.725Z,97322.57
2022-09-16T06:49:05.389Z,97328.66
2022-09-16T06:51:38.772Z,97323.77
2022-09-16T06:54:12.084Z,97326.50
2022-09-16T06:56:45.309Z,97330.16
2022-09-16T06:59:17.368Z,97332.92
2022-09-16T07:01:50.049Z,97337.80
2022-09-16T07:04:22.128Z,97334.86
2022-09-16T07:07:10.583Z,97332.48
2022-09-16T07:09:43.229Z,97330.52
2022-09-16T07:12:19.462Z,97333.35
2022-09-16T07:14:53.090Z,97338.70
2022-09-16T07:17:27.372Z,97336.27
2022-09-16T07:19:59.514Z,97338.27
2022-09-16T07:22:35.018Z,97334.77
2022-09-16T07:25:08.311Z,97336.40
2022-09-16T07:27:40.594Z,97331.23
2022-09-16T07:30:13.992Z,97332.61
2022-09-16T07:32:49.680Z,97336.54
2022-09-16T07:35:21.836Z,97336.08
2022-09-16T07:42:47.165Z,97331.83
2022-09-16T07:45:19.750Z,97334.08
2022-09-16T07:47:56.188Z,97338.61
2022-09-16T07:50:29.539Z,97338.11
2022-09-16T07:53:02.002Z,97339.84
2022-09-16T07:55:35.862Z,97346.09
2022-09-16T07:58:08.158Z,97344.67
2022-09-16T08:00:42.512Z,97345.75
2022-09-16T08:03:14.851Z,97344.58
2022-09-16T08:05:47.548Z,97347.30
2022-09-16T08:08:20.029Z,97343.55
2022-09-16T08:14:43.775Z,97344.70
2022-09-16T08:17:16.963Z,97357.52
2022-09-16T08:19:49.239Z,97353.77
2022-09-16T08:22:25.909Z,97347.04
2022-09-16T08:24:58.189Z,97347.13
2022-09-16T08:27:30.560Z,97346.38
2022-09-16T08:30:02.731Z,97342.36
2022-09-16T08:32:35.158Z,97344.88
2022-09-16T08:35:08.853Z,97348.13
2022-09-16T08:37:41.331Z,97346.73
2022-09-16T08:43:05.870Z,97348.95
2022-09-16T08:45:45.318Z,97342.29
2022-09-16T08:48:29.534Z,97335.61
2022-09-16T08:51:03.652Z,97344.55
2022-09-16T08:53:41.072Z,97347.13
2022-09-16T08:56:19.278Z,97345.12
2022-09-16T08:58:55.666Z,97343.34
2022-09-16T09:01:36.122Z,97340.72
2022-09-16T09:04:08.781Z,97346.27
2022-09-16T09:10:30.700Z,97340.89
2022-09-16T09:13:14.336Z,97341.98
2022-09-16T09:15:55.909Z,97349.22
2022-09-16T09:18:40.113Z,97352.64
2022-09-16T09:21:24.458Z,97351.40
2022-09-16T09:24:21.220Z,97360.19
2022-09-16T09:26:58.222Z,97360.36
2022-09-16T09:33:46.876Z,97358.86
2022-09-16T09:36:42.322Z,97344.68
2022-09-16T09:39:33.784Z,97343.12
2022-09-16T09:42:16.044Z,97345.57
2022-09-16T09:45:01.368Z,97343.30
2022-09-16T09:47:38.221Z,97353.75
2022-09-16T09:50:20.267Z,97355.89
2022-09-16T09:53:01.001Z,97348.25
2022-09-16T09:55:36.371Z,97345.75
2022-09-16T09:58:23.676Z,97350.63
2022-09-16T10:00:57.649Z,97344.48
2022-09-16T10:03:31.435Z,97340.48
2022-09-16T10:06:03.926Z,97339.23
2022-09-16T10:08:42.919Z,97335.25
2022-09-16T10:11:22.138Z,97335.88
2022-09-16T10:13:58.325Z,97332.05
2022-09-16T10:16:33.894Z,97321.80
2022-09-16T10:19:09.800Z,97330.89
2022-09-16T10:21:47.737Z,97330.51
2022-09-16T10:24:34.911Z,97331.84
2022-09-16T10:27:22.844Z,97332.49
2022-09-16T10:30:13.518Z,97326.02
2022-09-16T10:32:54.058Z,97325.55
2022-09-16T10:35:29.333Z,97333.92
2022-09-16T10:38:06.066Z,97332.45
2022-09-16T10:40:39.476Z,97331.16
2022-09-16T10:43:17.582Z,97329.79
2022-09-16T10:45:52.380Z,97328.31
2022-09-16T10:48:29.460Z,97329.33
2022-09-16T10:51:04.050Z,97332.68
2022-09-16T10:53:39.578Z,97335.42
2022-09-16T10:56:21.786Z,97335.20
2022-09-16T10:59:07.338Z,97334.23
2022-09-16T11:01:49.077Z,97326.53
2022-09-16T11:04:49.257Z,97323.40
2022-09-16T11:07:33.701Z,97315.91
2022-09-16T11:10:19.508Z,97315.61
2022-09-16T11:13:06.682Z,97313.41
2022-09-16T11:15:53.425Z,97309.71
2022-09-16T11:18:42.917Z,97305.86
2022-09-16T11:21:35.420Z,97304.37
2022-09-16T11:24:22.160Z,97306.81
2022-09-16T11:27:07.940Z,97300.81
2022-09-16T11:29:59.139Z,97300.41
2022-09-16T11:32:47.829Z,97300.09
2022-09-16T11:35:34.937Z,97288.23
2022-09-16T11:38:17.965Z,97289.55
2022-09-16T11:40:54.266Z,97282.32
2022-09-16T11:44:01.291Z,97286.46
2022-09-16T11:46:47.018Z,97289.81
2022-09-16T11:49:35.053Z,97282.39
2022-09-16T11:52:23.101Z,97281.45
2022-09-16T11:55:26.404Z,97280.03
2022-09-16T11:58:04.442Z,97280.63
2022-09-16T12:00:39.326Z,97279.04
2022-09-16T12:03:19.957Z,97277.20
2022-09-16T12:06:03.706Z,97272.45
2022-09-16T12:08:50.014Z,97281.90
2022-09-16T12:11:27.282Z,97295.02
2022-09-16T12:14:07.396Z,97310.55
2022-09-16T12:16:45.116Z,97312.57
2022-09-16T12:19:25.378Z,97320.66
2022-09-16T12:22:03.176Z,97313.23
2022-09-16T12:24:43.695Z,97311.78
2022-09-16T12:27:25.400Z,97321.98
2022-09-16T12:30:03.241Z,97322.33
2022-09-16T12:32:46.285Z,97321.72
2022-09-16T12:35:22.256Z,97321.48
2022-09-16T12:37:57.639Z,97325.21
2022-09-16T12:41:02.448Z,97320.24
2022-09-16T12:43:50.922Z,97312.51
2022-09-16T12:46:44.425Z,97311.38
2022-09-16T12:49:52.861Z,97314.92
2022-09-16T12:52:33.847Z,97312.39
2022-09-16T12:55:27.789Z,97319.48
2022-09-16T12:58:17.417Z,97312.57
2022-09-16T13:01:00.270Z,97310.28
2022-09-16T13:06:24.281Z,97311.58
2022-09-16T13:08:58.169Z,97310.92
2022-09-16T13:12:24.119Z,97319.10
2022-09-16T13:14:30.171Z,97320.91
2022-09-16T13:17:03.601Z,97317.46
2022-09-16T13:19:44.562Z,97318.30
2022-09-16T13:22:25.605Z,97313.80
2022-09-16T13:25:08.849Z,97312.38
2022-09-16T13:27:53.626Z,97306.48
2022-09-16T13:30:39.615Z,97308.09
2022-09-16T13:33:28.990Z,97307.52
2022-09-16T13:36:17.039Z,97306.58
2022-09-16T13:38:50.896Z,97306.26
2022-09-16T13:41:37.972Z,97305.95
2022-09-16T13:44:41.625Z,97301.34
2022-09-16T13:47:22.489Z,97299.99
2022-09-16T13:49:57.774Z,97295.60
2022-09-16T13:52:33.472Z,97287.50
2022-09-16T13:55:22.294Z,97285.73
2022-09-16T13:58:02.847Z,97282.71
2022-09-16T14:00:45.633Z,97279.05
2022-09-16T14:03:53.239Z,97275.53
2022-09-16T14:06:57.870Z,97273.70
2022-09-16T14:09:47.242Z,97273.03
2022-09-16T14:12:29.114Z,97273.48
2022-09-16T14:15:02.209Z,97274.49
2022-09-16T14:17:42.352Z,97266.29
2022-09-16T14:20:19.146Z,97259.19
2022-09-16T14:23:00.830Z,97260.52
2022-09-16T14:25:36.281Z,97255.02
2022-09-16T14:29:05.447Z,97245.30
2022-09-16T14:31:38.394Z,97235.59
2022-09-16T14:34:16.316Z,97238.66
2022-09-16T14:36:49.629Z,97238.70
2022-09-16T14:39:25.308Z,97234.96
2022-09-16T14:41:59.562Z,97232.45
2022-09-16T14:44:38.510Z,97236.88
2022-09-16T14:47:39.675Z,97231.46
2022-09-16T14:50:21.022Z,97232.25
2022-09-16T14:52:58.955Z,97224.77
2022-09-16T14:55:33.653Z,97232.29
2022-09-16T14:58:06.252Z,97232.08
2022-09-16T15:00:44.418Z,97236.45
2022-09-16T15:03:22.904Z,97234.59
2022-09-16T15:05:56.962Z,97232.23
2022-09-16T15:08:32.929Z,97232.58
2022-09-16T15:11:29.796Z,97232.94
2022-09-16T15:14:08.802Z,97237.20
2022-09-16T15:16:48.112Z,97235.30
2022-09-16T15:19:25.003Z,97237.71
2022-09-16T15:21:58.159Z,97229.95
2022-09-16T15:24:34.012Z,97226.04
2022-09-16T15:27:09.966Z,97227.16
2022-09-16T15:29:55.489Z,97221.23
2022-09-16T15:32:31.939Z,97223.45
2022-09-16T15:35:25.078Z,97221.84
2022-09-16T15:37:58.512Z,97216.98
2022-09-16T15:40:39.957Z,97212.40
2022-09-16T15:43:19.884Z,97217.70
2022-09-16T15:46:03.023Z,97219.13
2022-09-16T15:48:38.065Z,97213.05
2022-09-16T15:51:25.730Z,97210.10
2022-09-16T15:54:07.668Z,97203.70
2022-09-16T15:56:53.581Z,97204.21
2022-09-16T15:59:30.932Z,97205.92
2022-09-16T16:02:07.892Z,97205.65
2022-09-16T16:04:40.284Z,97205.46
2022-09-16T16:07:12.854Z,97205.59
2022-09-16T16:09:45.864Z,97205.48
2022-09-16T16:12:20.162Z,97210.55
2022-09-16T16:14:53.265Z,97210.17
2022-09-16T16:17:25.615Z,97205.36
2022-09-16T16:19:57.972Z,97205.38
2022-09-16T16:22:30.162Z,97207.95
2022-09-16T16:25:02.350Z,97206.05
2022-09-16T16:27:34.594Z,97212.18
2022-09-16T16:30:08.555Z,97215.46
2022-09-16T16:32:43.539Z,97211.98
2022-09-16T16:35:16.822Z,97214.36
2022-09-16T16:37:49.496Z,97216.77
2022-09-16T16:40:21.737Z,97216.31
2022-09-16T16:42:54.154Z,97218.98
2022-09-16T16:45:26.488Z,97220.54
2022-09-16T16:48:01.729Z,97217.52
2022-09-16T16:50:33.921Z,97218.59
2022-09-16T16:53:06.337Z,97213.13
2022-09-16T16:55:38.552Z,97212.45
2022-09-16T16:58:10.700Z,97214.19
2022-09-16T17:00:43.350Z,97211.25
2022-09-16T17:03:15.528Z,97212.19
2022-09-16T17:05:49.635Z,97215.73
2022-09-16T17:08:22.118Z,97217.66
2022-09-16T17:11:08.184Z,97218.73
2022-09-16T17:13:41.124Z,97221.89
2022-09-16T17:16:16.102Z,97224.66
2022-09-16T17:18:51.834Z,97236.21
2022-09-16T17:21:28.233Z,97241.08
2022-09-16T17:24:02.291Z,97240.95
2022-09-16T17:26:35.089Z,97232.95
2022-09-16T17:29:15.489Z,97242.98
2022-09-16T17:31:49.163Z,97248.39
2022-09-16T17:34:21.505Z,97252.91
2022-09-16T17:36:59.702Z,97245.21
2022-09-16T17:39:32.837Z,97246.39
2022-09-16T17:42:05.362Z,97243.80
2022-09-16T17:44:39.449Z,97246.60
2022-09-16T17:47:12.047Z,97243.70
2022-09-16T17:49:44.280Z,97243.36
2022-09-16T17:52:20.530Z,97243.34
2022-09-16T17:54:53.552Z,97247.13
2022-09-16T17:57:32.425Z,97252.44
2022-09-16T18:00:10.741Z,97252.30
2022-09-16T18:02:48.996Z,97247.94
2022-09-16T18:05:22.628Z,97253.57
2022-09-16T18:07:57.963Z,97254.81
2022-09-16T18:10:31.903Z,97255.63
2022-09-16T18:13:08.150Z,97254.98
2022-09-16T18:15:41.043Z,97254.45
2022-09-16T18:18:17.597Z,97254.27
2022-09-16T18:20:56.443Z,97261.06
2022-09-16T18:23:34.397Z,97260.98
2022-09-16T18:26:12.014Z,97266.02
2022-09-16T18:29:08.506Z,97265.85
2022-09-16T18:31:40.560Z,97268.11
2022-09-16T18:34:18.966Z,97268.27
2022-09-16T18:36:53.255Z,97271.88
2022-09-16T18:39:28.071Z,97277.98
2022-09-16T18:42:01.126Z,97274.17
2022-09-16T18:44:35.448Z,97268.38
2022-09-16T18:47:08.759Z,97269.57
2022-09-16T18:49:41.075Z,97272.30
2022-09-16T18:52:14.351Z,97267.45
2022-09-16T18:54:49.312Z,97265.58
2022-09-16T18:57:24.062Z,97264.56
2022-09-16T19:00:01.835Z,97259.77
2022-09-16T19:02:37.881Z,97260.75
2022-09-16T19:05:14.151Z,97261.79
2022-09-16T19:07:49.782Z,97258.38
2022-09-16T19:10:27.202Z,97259.73
2022-09-16T19:13:00.127Z,97259.00
2022-09-16T19:15:42.208Z,97263.08
2022-09-16T19:18:18.670Z,97264.23
2022-09-16T19:20:53.657Z,97267.59
2022-09-16T19:23:31.920Z,97262.32
2022-09-16T19:26:09.138Z,97263.20
2022-09-16T19:28:42.605Z,97267.51
2022-09-16T19:31:16.105Z,97270.43
2022-09-16T19:33:50.319Z,97268.10
2022-09-16T19:36:26.970Z,97266.94
2022-09-16T19:39:01.280Z,97259.27
2022-09-16T19:41:39.110Z,97258.42
2022-09-16T19:44:15.298Z,97257.21
2022-09-16T19:46:50.984Z,97261.92
2022-09-16T19:49:24.458Z,97259.94
2022-09-16T19:51:56.827Z,97262.73
2022-09-16T19:54:29.212Z,97260.70
2022-09-16T19:57:02.636Z,97261.83
2022-09-16T19:59:34.855Z,97259.54
2022-09-16T20:02:07.788Z,97258.61
2022-09-16T20:04:40.533Z,97262.33
2022-09-16T20:07:17.068Z,97266.12
2022-09-16T20:09:50.372Z,97260.71
2022-09-16T20:12:22.806Z,97262.63
2022-09-16T20:14:55.052Z,97268.71
2022-09-16T20:17:27.197Z,97266.58
2022-09-16T20:20:02.280Z,97267.23
2022-09-16T20:22:35.123Z,97264.13
2022-09-16T20:25:22.428Z,97260.88
2022-09-16T20:27:56.969Z,97266.86
2022-09-16T20:30:37.064Z,97267.83
2022-09-16T20:33:09.522Z,97271.23
2022-09-16T20:35:41.610Z,97273.48
2022-09-16T20:38:13.898Z,97276.58
2022-09-16T20:40:46.556Z,97277.99
2022-09-16T20:43:18.904Z,97280.04
2022-09-16T20:45:53.773Z,97284.85
2022-09-16T20:48:26.180Z,97287.39
2022-09-16T20:51:03.106Z,97292.60
2022-09-16T20:53:36.346Z,97294.59
2022-09-16T20:56:11.781Z,97296.06
2022-09-16T20:58:44.209Z,97293.74
2022-09-16T21:01:18.118Z,97296.73
2022-09-16T21:03:54.302Z,97296.80
2022-09-16T21:06:28.761Z,97291.31
2022-09-16T21:09:04.305Z,97295.94
2022-09-16T21:11:36.666Z,97292.42
2022-09-16T21:14:09.468Z,97300.61
2022-09-16T21:16:42.452Z,97298.31
2022-09-16T21:19:15.234Z,97300.34
2022-09-16T21:21:48.611Z,97297.73
2022-09-16T21:24:23.505Z,97299.71
2022-09-16T21:26:55.823Z,97300.64
2022-09-16T21:29:28.123Z,97296.99
2022-09-16T21:32:12.560Z,97296.00
2022-09-16T21:34:44.689Z,97295.50
2022-09-16T21:37:17.209Z,97298.25
2022-09-16T21:39:49.579Z,97299.34
2022-09-16T21:42:21.830Z,97298.61
2022-09-16T21:44:58.098Z,97295.39
2022-09-16T21:47:30.368Z,97292.80
2022-09-16T21:50:02.616Z,97295.98
2022-09-16T21:52:35.118Z,97300.60
2022-09-16T21:55:08.297Z,97303.55
2022-09-16T21:57:40.367Z,97301.93
2022-09-16T22:00:15.703Z,97302.61
2022-09-16T22:02:47.915Z,97301.60
2022-09-16T22:05:23.088Z,97303.63
2022-09-16T22:07:55.388Z,97297.92
2022-09-16T22:10:27.742Z,97301.84
2022-09-16T22:13:00.043Z,97298.91
2022-09-16T22:15:32.550Z,97301.05
2022-09-16T22:18:04.900Z,97305.71
2022-09-16T22:20:37.048Z,97305.11
2022-09-16T22:23:12.129Z,97305.93
2022-09-16T22:25:44.325Z,97312.00
2022-09-16T22:28:19.032Z,97312.02
2022-09-16T22:30:51.077Z,97307.90
2022-09-16T22:33:23.247Z,97312.02
2022-09-16T22:35:55.478Z,97309.16
2022-09-16T22:38:27.804Z,97308.69
2022-09-16T22:41:03.195Z,97310.70
2022-09-16T22:43:38.769Z,97308.71
2022-09-16T22:46:13.225Z,97307.05
2022-09-16T22:48:46.354Z,97308.96
2022-09-16T22:51:20.278Z,97305.51
2022-09-16T22:53:52.831Z,97303.98
2022-09-16T22:56:29.446Z,97307.35
2022-09-16T22:59:04.333Z,97301.89
2022-09-16T23:01:39.290Z,97304.38
2022-09-16T23:04:12.579Z,97306.66
2022-09-16T23:06:45.044Z,97310.21
2022-09-16T23:09:20.005Z,97311.04
2022-09-16T23:11:52.195Z,97310.53
2022-09-16T23:14:26.369Z,97306.14
2022-09-16T23:16:58.932Z,97304.52
2022-09-16T23:19:31.104Z,97307.07
2022-09-16T23:22:03.180Z,97301.81
2022-09-16T23:24:35.494Z,97301.98
2022-09-16T23:27:08.338Z,97298.88
2022-09-16T23:29:41.512Z,97295.52
2022-09-16T23:32:14.156Z,97291.41
2022-09-16T23:34:46.560Z,97297.94
2022-09-16T23:37:18.779Z,97296.24
2022-09-16T23:39:51.282Z,97295.23
2022-09-16T23:42:29.724Z,97297.41
2022-09-16T23:45:02.005Z,97298.20
2022-09-16T23:47:36.367Z,97295.46
2022-09-16T23:50:11.792Z,97296.34
2022-09-16T23:52:44.074Z,97295.48
2022-09-16T23:55:16.608Z,97299.69
2022-09-16T23:57:48.710Z,97298.70
